EDT,Max TemperatureF,Mean TemperatureF,Min TemperatureF,Max Dew PointF,MeanDew PointF,Min DewpointF,Max Humidity, Mean Humidity, Min Humidity, Max Sea Level PressureIn, Mean Sea Level PressureIn, Min Sea Level PressureIn, Max VisibilityMiles, Mean VisibilityMiles, Min VisibilityMiles, Max Wind SpeedMPH, Mean Wind SpeedMPH, Max Gust SpeedMPH,PrecipitationIn, CloudCover, Events, WindDirDegrees
2013-7-1,75,68,62,70,65,61,100,95,83,30.11,30.03,29.94,10,5,0,10,5,,0.00,7,,201
2013-7-2,66,62,57,66,60,55,100,98,88,30.23,30.19,30.10,10,7,1,12,5,16,0.00,8,,47
2013-7-3,73,65,57,64,61,55,100,91,73,30.19,30.15,30.11,10,10,7,13,3,,0.00,4,,199
2013-7-4,89,74,60,72,67,59,100,80,46,30.15,30.09,30.04,10,9,2,13,5,17,0.00,1,,233
2013-7-5,89,76,64,73,69,64,100,78,49,30.07,30.03,29.98,10,9,0,13,5,20,0.00,1,,237
2013-7-6,87,78,68,73,70,64,100,76,52,30.00,29.95,29.88,10,9,2,12,3,18,0.00,1,,272
2013-7-7,87,76,64,68,65,59,94,65,38,29.93,29.90,29.86,10,10,10,12,3,16,0.00,1,,240
2013-7-8,75,68,60,68,62,52,100,81,53,30.08,29.99,29.90,10,10,10,13,3,,0.00,5,,31
2013-7-9,66,62,59,64,61,57,100,95,82,30.14,30.11,30.08,10,7,1,7,2,,0.00,6,,76
2013-7-10,64,62,60,64,61,59,100,96,88,30.11,29.98,29.80,10,6,0,9,3,,0.00,8,,94
2013-7-11,77,70,64,72,67,63,100,93,83,29.95,29.82,29.75,10,6,0,9,4,,0.00,7,,220
2013-7-12,80,70,60,64,59,54,94,71,42,30.21,30.11,29.95,10,10,0,10,5,,0.00,2,,11
2013-7-13,80,68,55,64,58,50,100,73,34,30.31,30.28,30.21,10,10,2,15,3,20,0.00,0,,193
2013-7-14,87,74,60,68,63,59,100,75,46,30.28,30.22,30.17,10,10,2,16,3,16,0.00,1,,201
2013-7-15,91,76,62,70,65,57,100,71,33,30.17,30.10,30.03,10,10,7,10,2,17,0.00,0,,261
2013-7-16,89,78,66,68,65,55,94,69,43,30.18,30.11,30.05,10,10,7,9,3,16,0.00,1,,55
2013-7-17,75,70,64,66,62,55,100,75,60,30.20,30.09,29.92,10,10,4,23,8,29,0.01,3,Thunderstorm,194
2013-7-18,84,75,66,70,64,57,100,75,42,29.99,29.96,29.90,10,8,0,14,5,21,0.00,2,,221
2013-7-19,82,74,66,73,69,64,100,88,70,29.95,29.77,29.63,10,8,0,16,9,22,0.00,4,,200
2013-7-20,84,76,68,72,69,63,100,81,62,29.76,29.64,29.58,10,9,2,14,7,17,0.00,1,Thunderstorm,216
2013-7-21,75,66,57,63,57,54,100,75,50,30.04,29.93,29.77,10,10,10,15,4,17,0.00,3,,224
2013-7-22,71,62,53,63,57,52,100,79,50,30.06,30.02,29.97,10,10,9,9,2,,0.00,4,,146
2013-7-23,66,62,59,66,62,57,100,98,88,29.96,29.70,29.53,10,3,0,8,3,,0.00,8,,88
2013-7-24,77,70,60,72,65,54,100,87,68,29.95,29.69,29.55,10,8,0,15,4,18,0.00,5,,232
2013-7-25,71,63,55,61,55,52,100,75,53,30.13,30.07,29.96,10,10,10,14,6,17,0.00,3,,19
2013-7-26,69,64,60,68,65,59,100,99,94,30.09,29.95,29.83,10,6,1,12,6,16,0.00,8,,16
2013-7-27,78,69,60,64,63,59,100,86,61,30.06,29.96,29.83,10,9,2,14,7,17,0.00,5,,251
2013-7-28,69,64,59,66,63,57,100,95,83,30.08,30.05,30.02,10,7,0,8,3,,0.00,7,,86
2013-7-29,73,68,62,66,64,61,100,93,78,30.07,30.03,29.99,10,7,0,9,4,,0.00,8,,173
2013-7-30,78,70,62,66,62,57,100,83,47,30.06,30.02,29.98,10,7,0,9,2,,0.00,5,,292
2013-7-31,78,68,57,61,58,54,100,75,42,30.09,30.05,30.03,10,10,8,18,4,21,0.00,0,,236